sensor_id;sensor_type;location;lat;lon;timestamp;P1;durP1;ratioP1;P2;durP2;ratioP2
2868;SDS011;1442;47.448;8.582;2022-08-02T06:23:51;7.38;;;2.13;;
2868;SDS011;1442;47.448;8.582;2022-08-02T06:26:18;2.50;;;1.92;;
2868;SDS011;1442;47.448;8.582;2022-08-02T06:28:46;2.30;;;1.95;;
2868;SDS011;1442;47.448;8.582;2022-08-02T06:31:13;3.00;;;1.90;;
2868;SDS011;1442;47.448;8.582;2022-08-02T06:33:41;4.00;;;1.77;;
2868;SDS011;1442;47.448;8.582;2022-08-02T06:36:09;2.60;;;2.10;;
2868;SDS011;1442;47.448;8.582;2022-08-02T06:38:38;2.50;;;2.08;;
2868;SDS011;1442;47.448;8.582;2022-08-02T06:41:08;3.72;;;2.60;;
2868;SDS011;1442;47.448;8.582;2022-08-02T06:43:37;5.75;;;2.47;;
2868;SDS011;1442;47.448;8.582;2022-08-02T06:46:06;3.53;;;2.40;;
2868;SDS011;1442;47.448;8.582;2022-08-02T06:48:34;2.40;;;2.20;;
2868;SDS011;1442;47.448;8.582;2022-08-02T06:51:01;3.60;;;2.97;;
2868;SDS011;1442;47.448;8.582;2022-08-02T06:53:28;2.50;;;2.30;;
2868;SDS011;1442;47.448;8.582;2022-08-02T06:55:55;2.95;;;2.50;;
2868;SDS011;1442;47.448;8.582;2022-08-02T06:58:24;2.50;;;2.30;;
2868;SDS011;1442;47.448;8.582;2022-08-02T07:00:51;7.03;;;2.38;;
2868;SDS011;1442;47.448;8.582;2022-08-02T07:03:18;4.30;;;3.60;;
2868;SDS011;1442;47.448;8.582;2022-08-02T07:05:45;5.18;;;4.50;;
2868;SDS011;1442;47.448;8.582;2022-08-02T07:08:13;4.38;;;3.72;;
2868;SDS011;1442;47.448;8.582;2022-08-02T07:10:40;4.25;;;3.85;;
2868;SDS011;1442;47.448;8.582;2022-08-02T07:13:07;5.20;;;4.00;;
2868;SDS011;1442;47.448;8.582;2022-08-02T07:15:36;5.35;;;3.58;;
2868;SDS011;1442;47.448;8.582;2022-08-02T07:18:04;3.78;;;3.42;;
2868;SDS011;1442;47.448;8.582;2022-08-02T07:20:31;5.32;;;3.30;;
2868;SDS011;1442;47.448;8.582;2022-08-02T07:22:58;9.25;;;3.78;;
2868;SDS011;1442;47.448;8.582;2022-08-02T07:25:25;5.43;;;3.58;;
2868;SDS011;1442;47.448;8.582;2022-08-02T07:27:52;3.92;;;3.40;;
2868;SDS011;1442;47.448;8.582;2022-08-02T07:30:19;3.97;;;3.15;;
2868;SDS011;1442;47.448;8.582;2022-08-02T07:32:48;4.00;;;3.05;;
2868;SDS011;1442;47.448;8.582;2022-08-02T07:35:15;4.00;;;2.88;;
2868;SDS011;1442;47.448;8.582;2022-08-02T07:37:42;5.57;;;4.30;;
2868;SDS011;1442;47.448;8.582;2022-08-02T07:40:10;7.90;;;4.57;;
2868;SDS011;1442;47.448;8.582;2022-08-02T07:42:38;7.78;;;5.03;;
2868;SDS011;1442;47.448;8.582;2022-08-02T07:45:05;6.45;;;4.63;;
2868;SDS011;1442;47.448;8.582;2022-08-02T07:47:34;6.90;;;4.03;;
2868;SDS011;1442;47.448;8.582;2022-08-02T07:50:03;5.45;;;3.80;;
2868;SDS011;1442;47.448;8.582;2022-08-02T07:52:30;7.97;;;4.50;;
2868;SDS011;1442;47.448;8.582;2022-08-02T07:54:57;5.63;;;4.03;;
2868;SDS011;1442;47.448;8.582;2022-08-02T07:57:25;4.25;;;3.40;;
2868;SDS011;1442;47.448;8.582;2022-08-02T07:59:52;3.88;;;3.38;;
2868;SDS011;1442;47.448;8.582;2022-08-02T08:02:19;5.07;;;3.78;;
2868;SDS011;1442;47.448;8.582;2022-08-02T08:04:48;5.10;;;4.10;;
2868;SDS011;1442;47.448;8.582;2022-08-02T08:07:17;8.15;;;4.07;;
2868;SDS011;1442;47.448;8.582;2022-08-02T08:09:44;5.30;;;4.05;;
2868;SDS011;1442;47.448;8.582;2022-08-02T08:12:12;4.65;;;4.13;;
2868;SDS011;1442;47.448;8.582;2022-08-02T08:14:40;5.85;;;4.25;;
2868;SDS011;1442;47.448;8.582;2022-08-02T08:17:07;5.57;;;4.93;;
2868;SDS011;1442;47.448;8.582;2022-08-02T08:19:34;6.57;;;4.45;;
2868;SDS011;1442;47.448;8.582;2022-08-02T08:22:01;6.47;;;4.57;;
2868;SDS011;1442;47.448;8.582;2022-08-02T08:24:31;5.57;;;4.13;;
2868;SDS011;1442;47.448;8.582;2022-08-02T08:26:58;4.25;;;3.70;;
2868;SDS011;1442;47.448;8.582;2022-08-02T08:29:25;6.90;;;4.72;;
2868;SDS011;1442;47.448;8.582;2022-08-02T08:31:52;5.55;;;4.05;;
2868;SDS011;1442;47.448;8.582;2022-08-02T08:34:20;5.15;;;3.70;;
2868;SDS011;1442;47.448;8.582;2022-08-02T08:36:48;6.40;;;4.38;;
2868;SDS011;1442;47.448;8.582;2022-08-02T08:39:15;9.25;;;4.00;;
2868;SDS011;1442;47.448;8.582;2022-08-02T08:41:43;8.13;;;3.70;;
2868;SDS011;1442;47.448;8.582;2022-08-02T08:44:10;6.97;;;4.00;;
2868;SDS011;1442;47.448;8.582;2022-08-02T08:46:38;7.55;;;3.95;;
2868;SDS011;1442;47.448;8.582;2022-08-02T08:49:09;5.63;;;4.40;;
2868;SDS011;1442;47.448;8.582;2022-08-02T08:51:40;3.97;;;3.30;;
2868;SDS011;1442;47.448;8.582;2022-08-02T08:54:09;6.78;;;3.80;;
2868;SDS011;1442;47.448;8.582;2022-08-02T08:56:36;4.68;;;3.65;;
2868;SDS011;1442;47.448;8.582;2022-08-02T08:59:04;3.83;;;3.40;;
2868;SDS011;1442;47.448;8.582;2022-08-02T09:01:32;6.78;;;3.55;;
2868;SDS011;1442;47.448;8.582;2022-08-02T09:03:59;5.05;;;3.50;;
2868;SDS011;1442;47.448;8.582;2022-08-02T09:06:26;5.45;;;3.72;;
2868;SDS011;1442;47.448;8.582;2022-08-02T09:08:53;4.63;;;2.85;;
2868;SDS011;1442;47.448;8.582;2022-08-02T09:11:21;5.22;;;4.47;;
2868;SDS011;1442;47.448;8.582;2022-08-02T09:13:49;5.43;;;3.50;;
2868;SDS011;1442;47.448;8.582;2022-08-02T09:16:27;5.15;;;3.83;;
2868;SDS011;1442;47.448;8.582;2022-08-02T09:18:54;4.28;;;3.30;;
2868;SDS011;1442;47.448;8.582;2022-08-02T09:21:21;4.47;;;3.35;;
2868;SDS011;1442;47.448;8.582;2022-08-02T09:23:49;5.93;;;3.42;;
2868;SDS011;1442;47.448;8.582;2022-08-02T09:26:17;4.88;;;3.28;;
2868;SDS011;1442;47.448;8.582;2022-08-02T09:28:45;3.40;;;3.10;;
2868;SDS011;1442;47.448;8.582;2022-08-02T09:31:16;7.80;;;3.72;;
2868;SDS011;1442;47.448;8.582;2022-08-02T09:33:45;6.80;;;3.85;;
2868;SDS011;1442;47.448;8.582;2022-08-02T09:36:16;4.85;;;3.60;;
2868;SDS011;1442;47.448;8.582;2022-08-02T09:38:51;3.35;;;2.92;;
2868;SDS011;1442;47.448;8.582;2022-08-02T09:41:19;4.25;;;3.20;;
2868;SDS011;1442;47.448;8.582;2022-08-02T09:43:46;5.63;;;3.70;;
2868;SDS011;1442;47.448;8.582;2022-08-02T09:46:14;8.13;;;3.53;;
2868;SDS011;1442;47.448;8.582;2022-08-02T09:48:49;5.97;;;3.58;;
2868;SDS011;1442;47.448;8.582;2022-08-02T09:51:17;4.68;;;3.88;;
2868;SDS011;1442;47.448;8.582;2022-08-02T09:53:45;3.47;;;3.17;;
2868;SDS011;1442;47.448;8.582;2022-08-02T09:56:13;8.13;;;3.70;;
2868;SDS011;1442;47.448;8.582;2022-08-02T09:58:40;7.70;;;4.18;;
2868;SDS011;1442;47.448;8.582;2022-08-02T10:01:07;6.75;;;3.92;;
2868;SDS011;1442;47.448;8.582;2022-08-02T10:03:34;6.28;;;3.83;;
2868;SDS011;1442;47.448;8.582;2022-08-02T10:06:02;5.93;;;3.83;;
2868;SDS011;1442;47.448;8.582;2022-08-02T10:08:30;5.30;;;3.40;;
2868;SDS011;1442;47.448;8.582;2022-08-02T10:10:58;6.82;;;3.72;;
2868;SDS011;1442;47.448;8.582;2022-08-02T10:13:26;4.10;;;3.70;;
2868;SDS011;1442;47.448;8.582;2022-08-02T10:15:54;5.95;;;3.60;;
2868;SDS011;1442;47.448;8.582;2022-08-02T10:18:21;4.20;;;3.38;;
2868;SDS011;1442;47.448;8.582;2022-08-02T10:20:49;4.60;;;3.13;;
2868;SDS011;1442;47.448;8.582;2022-08-02T10:23:18;5.72;;;3.17;;
2868;SDS011;1442;47.448;8.582;2022-08-02T10:25:46;6.65;;;3.78;;
2868;SDS011;1442;47.448;8.582;2022-08-02T10:28:14;3.70;;;3.20;;
2868;SDS011;1442;47.448;8.582;2022-08-02T10:30:43;3.20;;;2.90;;
2868;SDS011;1442;47.448;8.582;2022-08-02T10:33:12;3.45;;;3.15;;
2868;SDS011;1442;47.448;8.582;2022-08-02T10:35:40;4.78;;;3.20;;
2868;SDS011;1442;47.448;8.582;2022-08-02T10:38:08;7.63;;;3.00;;
2868;SDS011;1442;47.448;8.582;2022-08-02T10:40:47;6.80;;;3.60;;
2868;SDS011;1442;47.448;8.582;2022-08-02T10:46:06;4.28;;;3.03;;
2868;SDS011;1442;47.448;8.582;2022-08-02T10:48:59;5.28;;;3.28;;
2868;SDS011;1442;47.448;8.582;2022-08-02T10:51:40;4.18;;;3.67;;
2868;SDS011;1442;47.448;8.582;2022-08-02T10:54:19;3.88;;;3.28;;
2868;SDS011;1442;47.448;8.582;2022-08-02T10:56:48;3.45;;;3.08;;
2868;SDS011;1442;47.448;8.582;2022-08-02T10:59:22;3.58;;;3.20;;
2868;SDS011;1442;47.448;8.582;2022-08-02T11:01:50;5.07;;;2.97;;
2868;SDS011;1442;47.448;8.582;2022-08-02T11:04:25;4.85;;;3.28;;
2868;SDS011;1442;47.448;8.582;2022-08-02T11:07:11;3.60;;;3.30;;
2868;SDS011;1442;47.448;8.582;2022-08-02T11:09:39;5.20;;;3.17;;
2868;SDS011;1442;47.448;8.582;2022-08-02T11:12:08;3.65;;;3.35;;
2868;SDS011;1442;47.448;8.582;2022-08-02T11:14:36;4.93;;;3.30;;
2868;SDS011;1442;47.448;8.582;2022-08-02T11:17:04;3.55;;;2.90;;
2868;SDS011;1442;47.448;8.582;2022-08-02T11:19:31;3.92;;;2.80;;
2868;SDS011;1442;47.448;8.582;2022-08-02T11:22:00;4.05;;;3.17;;
2868;SDS011;1442;47.448;8.582;2022-08-02T11:24:28;4.18;;;2.72;;
2868;SDS011;1442;47.448;8.582;2022-08-02T11:26:56;3.58;;;3.08;;
2868;SDS011;1442;47.448;8.582;2022-08-02T11:29:34;9.23;;;2.80;;
2868;SDS011;1442;47.448;8.582;2022-08-02T11:32:02;3.20;;;2.90;;
2868;SDS011;1442;47.448;8.582;2022-08-02T11:34:30;4.63;;;2.90;;
2868;SDS011;1442;47.448;8.582;2022-08-02T11:36:57;4.82;;;2.60;;
2868;SDS011;1442;47.448;8.582;2022-08-02T11:39:25;2.85;;;2.63;;
2868;SDS011;1442;47.448;8.582;2022-08-02T11:41:53;6.28;;;3.00;;
2868;SDS011;1442;47.448;8.582;2022-08-02T11:44:21;3.72;;;2.88;;
2868;SDS011;1442;47.448;8.582;2022-08-02T11:46:54;4.32;;;2.97;;
2868;SDS011;1442;47.448;8.582;2022-08-02T11:49:21;3.47;;;2.63;;
2868;SDS011;1442;47.448;8.582;2022-08-02T11:51:55;2.85;;;2.53;;
2868;SDS011;1442;47.448;8.582;2022-08-02T11:54:24;3.90;;;2.67;;
2868;SDS011;1442;47.448;8.582;2022-08-02T11:56:51;2.95;;;2.65;;
2868;SDS011;1442;47.448;8.582;2022-08-02T11:59:18;4.97;;;2.28;;
2868;SDS011;1442;47.448;8.582;2022-08-02T12:01:46;3.28;;;2.35;;
2868;SDS011;1442;47.448;8.582;2022-08-02T12:04:18;2.88;;;2.58;;
2868;SDS011;1442;47.448;8.582;2022-08-02T12:06:53;2.58;;;2.33;;
2868;SDS011;1442;47.448;8.582;2022-08-02T12:09:20;2.95;;;2.65;;
2868;SDS011;1442;47.448;8.582;2022-08-02T12:11:47;5.78;;;2.40;;
2868;SDS011;1442;47.448;8.582;2022-08-02T12:14:15;2.60;;;2.25;;
2868;SDS011;1442;47.448;8.582;2022-08-02T12:16:43;4.68;;;2.92;;
2868;SDS011;1442;47.448;8.582;2022-08-02T12:19:29;2.65;;;2.40;;
2868;SDS011;1442;47.448;8.582;2022-08-02T12:22:06;3.22;;;2.75;;
2868;SDS011;1442;47.448;8.582;2022-08-02T12:24:33;3.10;;;2.85;;
2868;SDS011;1442;47.448;8.582;2022-08-02T12:27:01;3.58;;;2.85;;
2868;SDS011;1442;47.448;8.582;2022-08-02T12:29:28;6.15;;;2.80;;
2868;SDS011;1442;47.448;8.582;2022-08-02T12:31:56;4.32;;;3.33;;
2868;SDS011;1442;47.448;8.582;2022-08-02T12:34:24;3.67;;;3.03;;
2868;SDS011;1442;47.448;8.582;2022-08-02T12:36:59;4.40;;;2.78;;
2868;SDS011;1442;47.448;8.582;2022-08-02T12:39:34;6.72;;;2.42;;
2868;SDS011;1442;47.448;8.582;2022-08-02T12:42:02;3.00;;;2.45;;
2868;SDS011;1442;47.448;8.582;2022-08-02T12:44:29;2.35;;;2.15;;
2868;SDS011;1442;47.448;8.582;2022-08-02T12:47:00;2.55;;;2.25;;
2868;SDS011;1442;47.448;8.582;2022-08-02T12:49:28;5.25;;;2.00;;
2868;SDS011;1442;47.448;8.582;2022-08-02T12:51:55;2.80;;;2.10;;
2868;SDS011;1442;47.448;8.582;2022-08-02T12:54:25;2.75;;;2.20;;
2868;SDS011;1442;47.448;8.582;2022-08-02T12:56:53;2.33;;;2.13;;
2868;SDS011;1442;47.448;8.582;2022-08-02T12:59:32;2.65;;;2.45;;
2868;SDS011;1442;47.448;8.582;2022-08-02T13:02:00;2.88;;;2.53;;
2868;SDS011;1442;47.448;8.582;2022-08-02T13:04:28;3.60;;;2.92;;
2868;SDS011;1442;47.448;8.582;2022-08-02T13:06:55;3.75;;;2.58;;
2868;SDS011;1442;47.448;8.582;2022-08-02T13:09:22;2.47;;;2.28;;
2868;SDS011;1442;47.448;8.582;2022-08-02T13:11:51;2.08;;;1.92;;
2868;SDS011;1442;47.448;8.582;2022-08-02T13:14:18;3.33;;;2.22;;
2868;SDS011;1442;47.448;8.582;2022-08-02T13:16:45;2.38;;;2.10;;
2868;SDS011;1442;47.448;8.582;2022-08-02T13:19:13;4.32;;;2.22;;
2868;SDS011;1442;47.448;8.582;2022-08-02T13:21:41;5.63;;;2.20;;
2868;SDS011;1442;47.448;8.582;2022-08-02T13:24:08;2.30;;;2.00;;
2868;SDS011;1442;47.448;8.582;2022-08-02T13:26:38;2.78;;;2.08;;
2868;SDS011;1442;47.448;8.582;2022-08-02T13:29:07;5.05;;;2.30;;
2868;SDS011;1442;47.448;8.582;2022-08-02T13:31:34;2.10;;;2.00;;
2868;SDS011;1442;47.448;8.582;2022-08-02T13:34:02;2.92;;;2.20;;
2868;SDS011;1442;47.448;8.582;2022-08-02T13:36:30;2.25;;;2.05;;
2868;SDS011;1442;47.448;8.582;2022-08-02T13:38:58;3.72;;;2.55;;
2868;SDS011;1442;47.448;8.582;2022-08-02T13:41:25;3.35;;;2.35;;
2868;SDS011;1442;47.448;8.582;2022-08-02T13:43:52;3.22;;;2.38;;
2868;SDS011;1442;47.448;8.582;2022-08-02T13:46:20;2.25;;;2.05;;
2868;SDS011;1442;47.448;8.582;2022-08-02T13:48:47;3.05;;;2.70;;
2868;SDS011;1442;47.448;8.582;2022-08-02T13:51:14;2.60;;;2.40;;
2868;SDS011;1442;47.448;8.582;2022-08-02T13:53:42;4.68;;;2.20;;
2868;SDS011;1442;47.448;8.582;2022-08-02T13:56:09;3.72;;;2.25;;
2868;SDS011;1442;47.448;8.582;2022-08-02T13:58:36;2.28;;;2.08;;
2868;SDS011;1442;47.448;8.582;2022-08-02T14:01:03;2.92;;;2.30;;
2868;SDS011;1442;47.448;8.582;2022-08-02T14:03:31;3.55;;;2.25;;
2868;SDS011;1442;47.448;8.582;2022-08-02T14:05:59;2.42;;;2.00;;
2868;SDS011;1442;47.448;8.582;2022-08-02T14:08:26;3.05;;;2.30;;
2868;SDS011;1442;47.448;8.582;2022-08-02T14:10:53;2.38;;;2.17;;
2868;SDS011;1442;47.448;8.582;2022-08-02T14:13:20;5.88;;;2.28;;
2868;SDS011;1442;47.448;8.582;2022-08-02T14:15:47;2.83;;;2.20;;
2868;SDS011;1442;47.448;8.582;2022-08-02T14:18:15;2.53;;;2.22;;
2868;SDS011;1442;47.448;8.582;2022-08-02T14:20:43;6.93;;;2.25;;
2868;SDS011;1442;47.448;8.582;2022-08-02T14:23:11;5.70;;;2.22;;
2868;SDS011;1442;47.448;8.582;2022-08-02T14:25:38;2.30;;;2.10;;
2868;SDS011;1442;47.448;8.582;2022-08-02T14:28:05;2.67;;;2.20;;
2868;SDS011;1442;47.448;8.582;2022-08-02T14:30:32;4.03;;;2.30;;
2868;SDS011;1442;47.448;8.582;2022-08-02T14:32:59;3.13;;;2.38;;
2868;SDS011;1442;47.448;8.582;2022-08-02T14:35:28;2.80;;;2.60;;
2868;SDS011;1442;47.448;8.582;2022-08-02T14:37:56;2.50;;;2.15;;
2868;SDS011;1442;47.448;8.582;2022-08-02T14:40:23;2.97;;;2.10;;
2868;SDS011;1442;47.448;8.582;2022-08-02T14:42:51;2.38;;;1.95;;
2868;SDS011;1442;47.448;8.582;2022-08-02T14:45:18;2.83;;;2.20;;
2868;SDS011;1442;47.448;8.582;2022-08-02T14:47:48;2.33;;;2.13;;
2868;SDS011;1442;47.448;8.582;2022-08-02T14:50:15;1.85;;;1.75;;
2868;SDS011;1442;47.448;8.582;2022-08-02T14:52:43;2.40;;;1.90;;
2868;SDS011;1442;47.448;8.582;2022-08-02T14:55:12;2.42;;;2.22;;
2868;SDS011;1442;47.448;8.582;2022-08-02T14:57:39;7.60;;;2.10;;
2868;SDS011;1442;47.448;8.582;2022-08-02T15:00:07;2.17;;;1.98;;
2868;SDS011;1442;47.448;8.582;2022-08-02T15:02:35;3.20;;;2.15;;
2868;SDS011;1442;47.448;8.582;2022-08-02T15:05:02;2.35;;;2.15;;
2868;SDS011;1442;47.448;8.582;2022-08-02T15:07:29;2.60;;;2.10;;
2868;SDS011;1442;47.448;8.582;2022-08-02T15:09:56;2.70;;;2.03;;
2868;SDS011;1442;47.448;8.582;2022-08-02T15:12:25;5.43;;;2.60;;
2868;SDS011;1442;47.448;8.582;2022-08-02T15:14:52;2.92;;;1.90;;
2868;SDS011;1442;47.448;8.582;2022-08-02T15:17:19;2.45;;;2.25;;
2868;SDS011;1442;47.448;8.582;2022-08-02T15:19:46;4.07;;;2.15;;
2868;SDS011;1442;47.448;8.582;2022-08-02T15:22:13;7.57;;;2.30;;
2868;SDS011;1442;47.448;8.582;2022-08-02T15:24:40;2.58;;;2.30;;
2868;SDS011;1442;47.448;8.582;2022-08-02T15:27:08;2.35;;;2.15;;
2868;SDS011;1442;47.448;8.582;2022-08-02T15:29:39;3.47;;;1.95;;
2868;SDS011;1442;47.448;8.582;2022-08-02T15:32:06;4.15;;;2.20;;
2868;SDS011;1442;47.448;8.582;2022-08-02T15:34:33;2.60;;;2.10;;
2868;SDS011;1442;47.448;8.582;2022-08-02T15:37:00;4.07;;;2.08;;
2868;SDS011;1442;47.448;8.582;2022-08-02T15:39:28;2.30;;;2.10;;
2868;SDS011;1442;47.448;8.582;2022-08-02T15:41:55;3.45;;;2.10;;
2868;SDS011;1442;47.448;8.582;2022-08-02T15:44:22;4.20;;;1.98;;
2868;SDS011;1442;47.448;8.582;2022-08-02T15:46:51;2.45;;;2.25;;
2868;SDS011;1442;47.448;8.582;2022-08-02T15:49:18;2.17;;;1.95;;
2868;SDS011;1442;47.448;8.582;2022-08-02T15:51:47;2.65;;;2.38;;
2868;SDS011;1442;47.448;8.582;2022-08-02T15:54:14;2.47;;;1.90;;
2868;SDS011;1442;47.448;8.582;2022-08-02T15:56:41;3.42;;;2.30;;
2868;SDS011;1442;47.448;8.582;2022-08-02T15:59:08;4.82;;;2.17;;
2868;SDS011;1442;47.448;8.582;2022-08-02T16:01:36;2.33;;;2.13;;
2868;SDS011;1442;47.448;8.582;2022-08-02T16:04:04;2.30;;;2.13;;
2868;SDS011;1442;47.448;8.582;2022-08-02T16:06:32;2.03;;;1.90;;
2868;SDS011;1442;47.448;8.582;2022-08-02T16:08:59;2.85;;;2.00;;
2868;SDS011;1442;47.448;8.582;2022-08-02T16:11:26;2.35;;;2.15;;
2868;SDS011;1442;47.448;8.582;2022-08-02T16:13:53;2.38;;;2.17;;
2868;SDS011;1442;47.448;8.582;2022-08-02T16:16:23;2.20;;;2.10;;
2868;SDS011;1442;47.448;8.582;2022-08-02T16:18:50;2.00;;;1.88;;
2868;SDS011;1442;47.448;8.582;2022-08-02T16:21:19;2.70;;;1.95;;
2868;SDS011;1442;47.448;8.582;2022-08-02T16:23:48;2.25;;;2.00;;
2868;SDS011;1442;47.448;8.582;2022-08-02T16:26:15;2.88;;;2.08;;
2868;SDS011;1442;47.448;8.582;2022-08-02T16:28:43;2.30;;;1.77;;
2868;SDS011;1442;47.448;8.582;2022-08-02T16:31:10;4.60;;;2.30;;
2868;SDS011;1442;47.448;8.582;2022-08-02T16:33:37;3.08;;;2.08;;
2868;SDS011;1442;47.448;8.582;2022-08-02T16:36:04;3.35;;;2.30;;
2868;SDS011;1442;47.448;8.582;2022-08-02T16:38:33;6.28;;;2.35;;
2868;SDS011;1442;47.448;8.582;2022-08-02T16:41:00;2.78;;;2.20;;
2868;SDS011;1442;47.448;8.582;2022-08-02T16:43:27;5.90;;;2.30;;
2868;SDS011;1442;47.448;8.582;2022-08-02T16:45:54;3.15;;;1.90;;
2868;SDS011;1442;47.448;8.582;2022-08-02T16:48:21;5.18;;;2.08;;
2868;SDS011;1442;47.448;8.582;2022-08-02T16:50:49;2.00;;;1.85;;
2868;SDS011;1442;47.448;8.582;2022-08-02T16:53:16;5.10;;;2.38;;
2868;SDS011;1442;47.448;8.582;2022-08-02T16:55:44;5.47;;;2.30;;
2868;SDS011;1442;47.448;8.582;2022-08-02T16:58:11;5.32;;;2.22;;
2868;SDS011;1442;47.448;8.582;2022-08-02T17:00:39;2.20;;;2.00;;
2868;SDS011;1442;47.448;8.582;2022-08-02T17:03:06;2.67;;;2.08;;
2868;SDS011;1442;47.448;8.582;2022-08-02T17:05:33;2.50;;;2.13;;
2868;SDS011;1442;47.448;8.582;2022-08-02T17:08:01;2.40;;;2.10;;
2868;SDS011;1442;47.448;8.582;2022-08-02T17:10:29;3.65;;;2.33;;
2868;SDS011;1442;47.448;8.582;2022-08-02T17:13:00;7.03;;;2.40;;
2868;SDS011;1442;47.448;8.582;2022-08-02T17:15:28;5.95;;;2.17;;
2868;SDS011;1442;47.448;8.582;2022-08-02T17:17:55;2.38;;;2.17;;
2868;SDS011;1442;47.448;8.582;2022-08-02T17:20:22;2.20;;;2.00;;
2868;SDS011;1442;47.448;8.582;2022-08-02T17:22:50;2.25;;;2.05;;
2868;SDS011;1442;47.448;8.582;2022-08-02T17:25:17;2.40;;;1.98;;
2868;SDS011;1442;47.448;8.582;2022-08-02T17:27:45;4.70;;;2.35;;
2868;SDS011;1442;47.448;8.582;2022-08-02T17:30:14;2.78;;;2.05;;
2868;SDS011;1442;47.448;8.582;2022-08-02T17:32:41;3.83;;;2.13;;
2868;SDS011;1442;47.448;8.582;2022-08-02T17:35:08;3.05;;;2.05;;
2868;SDS011;1442;47.448;8.582;2022-08-02T17:37:36;2.75;;;2.13;;
2868;SDS011;1442;47.448;8.582;2022-08-02T17:40:03;2.28;;;1.98;;
2868;SDS011;1442;47.448;8.582;2022-08-02T17:42:30;2.05;;;1.75;;
2868;SDS011;1442;47.448;8.582;2022-08-02T17:44:58;5.07;;;1.90;;
2868;SDS011;1442;47.448;8.582;2022-08-02T17:47:26;4.47;;;2.40;;
2868;SDS011;1442;47.448;8.582;2022-08-02T17:49:54;2.28;;;2.08;;
2868;SDS011;1442;47.448;8.582;2022-08-02T17:52:21;2.83;;;2.35;;
2868;SDS011;1442;47.448;8.582;2022-08-02T17:54:48;2.70;;;2.50;;
2868;SDS011;1442;47.448;8.582;2022-08-02T17:57:15;2.67;;;2.47;;
2868;SDS011;1442;47.448;8.582;2022-08-02T17:59:52;2.05;;;1.90;;
2868;SDS011;1442;47.448;8.582;2022-08-02T18:02:19;3.28;;;1.83;;
2868;SDS011;1442;47.448;8.582;2022-08-02T18:04:49;2.63;;;2.20;;
2868;SDS011;1442;47.448;8.582;2022-08-02T18:07:16;2.15;;;1.83;;
2868;SDS011;1442;47.448;8.582;2022-08-02T18:09:43;2.42;;;2.13;;
2868;SDS011;1442;47.448;8.582;2022-08-02T18:12:11;3.42;;;1.95;;
2868;SDS011;1442;47.448;8.582;2022-08-02T18:14:38;2.00;;;1.85;;
2868;SDS011;1442;47.448;8.582;2022-08-02T18:17:06;1.88;;;1.75;;
2868;SDS011;1442;47.448;8.582;2022-08-02T18:19:33;1.90;;;1.80;;
2868;SDS011;1442;47.448;8.582;2022-08-02T18:22:01;2.00;;;1.80;;
2868;SDS011;1442;47.448;8.582;2022-08-02T18:24:29;2.65;;;2.10;;
2868;SDS011;1442;47.448;8.582;2022-08-02T18:26:56;3.42;;;2.03;;
2868;SDS011;1442;47.448;8.582;2022-08-02T18:29:23;1.85;;;1.73;;
2868;SDS011;1442;47.448;8.582;2022-08-02T18:31:50;1.80;;;1.70;;
2868;SDS011;1442;47.448;8.582;2022-08-02T18:34:17;2.75;;;2.08;;
2868;SDS011;1442;47.448;8.582;2022-08-02T18:36:45;2.47;;;1.98;;
2868;SDS011;1442;47.448;8.582;2022-08-02T18:39:14;2.28;;;1.80;;
2868;SDS011;1442;47.448;8.582;2022-08-02T18:41:41;3.78;;;2.00;;
2868;SDS011;1442;47.448;8.582;2022-08-02T18:44:09;2.50;;;1.90;;
2868;SDS011;1442;47.448;8.582;2022-08-02T18:46:36;2.70;;;1.90;;
2868;SDS011;1442;47.448;8.582;2022-08-02T18:49:04;4.50;;;2.13;;
2868;SDS011;1442;47.448;8.582;2022-08-02T18:51:32;2.08;;;1.85;;
2868;SDS011;1442;47.448;8.582;2022-08-02T18:53:59;2.83;;;2.10;;
2868;SDS011;1442;47.448;8.582;2022-08-02T18:56:27;2.30;;;2.10;;
2868;SDS011;1442;47.448;8.582;2022-08-02T18:58:54;3.90;;;2.13;;
2868;SDS011;1442;47.448;8.582;2022-08-02T19:01:22;4.18;;;2.10;;
2868;SDS011;1442;47.448;8.582;2022-08-02T19:03:49;2.58;;;1.90;;
2868;SDS011;1442;47.448;8.582;2022-08-02T19:06:17;3.80;;;2.15;;
2868;SDS011;1442;47.448;8.582;2022-08-02T19:08:44;2.47;;;2.10;;
2868;SDS011;1442;47.448;8.582;2022-08-02T19:11:12;2.33;;;2.13;;
2868;SDS011;1442;47.448;8.582;2022-08-02T19:13:40;3.60;;;1.90;;
2868;SDS011;1442;47.448;8.582;2022-08-02T19:16:08;2.03;;;1.90;;
2868;SDS011;1442;47.448;8.582;2022-08-02T19:18:36;3.70;;;2.30;;
2868;SDS011;1442;47.448;8.582;2022-08-02T19:21:03;2.35;;;2.13;;
2868;SDS011;1442;47.448;8.582;2022-08-02T19:23:30;2.50;;;2.30;;
2868;SDS011;1442;47.448;8.582;2022-08-02T19:25:57;4.75;;;2.17;;
2868;SDS011;1442;47.448;8.582;2022-08-02T19:28:26;2.80;;;1.95;;
2868;SDS011;1442;47.448;8.582;2022-08-02T19:30:54;2.15;;;1.88;;
2868;SDS011;1442;47.448;8.582;2022-08-02T19:33:22;2.58;;;2.20;;
2868;SDS011;1442;47.448;8.582;2022-08-02T19:35:49;4.97;;;2.65;;
2868;SDS011;1442;47.448;8.582;2022-08-02T19:38:16;3.92;;;2.28;;
2868;SDS011;1442;47.448;8.582;2022-08-02T19:40:44;5.30;;;2.05;;
2868;SDS011;1442;47.448;8.582;2022-08-02T19:43:11;2.88;;;2.50;;
2868;SDS011;1442;47.448;8.582;2022-08-02T19:45:38;3.40;;;2.25;;
2868;SDS011;1442;47.448;8.582;2022-08-02T19:48:07;3.05;;;2.30;;
2868;SDS011;1442;47.448;8.582;2022-08-02T19:50:36;2.83;;;1.80;;
2868;SDS011;1442;47.448;8.582;2022-08-02T19:53:03;3.85;;;1.92;;
2868;SDS011;1442;47.448;8.582;2022-08-02T19:55:31;2.53;;;2.20;;
2868;SDS011;1442;47.448;8.582;2022-08-02T19:57:58;5.93;;;2.30;;
2868;SDS011;1442;47.448;8.582;2022-08-02T20:00:25;5.15;;;2.22;;
2868;SDS011;1442;47.448;8.582;2022-08-02T20:02:52;4.78;;;2.13;;
2868;SDS011;1442;47.448;8.582;2022-08-02T20:05:20;2.38;;;2.15;;
2868;SDS011;1442;47.448;8.582;2022-08-02T20:07:48;2.67;;;2.38;;
2868;SDS011;1442;47.448;8.582;2022-08-02T20:10:15;2.78;;;2.20;;
2868;SDS011;1442;47.448;8.582;2022-08-02T20:12:42;3.75;;;2.55;;
2868;SDS011;1442;47.448;8.582;2022-08-02T20:15:10;2.10;;;2.00;;
2868;SDS011;1442;47.448;8.582;2022-08-02T20:17:37;5.00;;;2.67;;
2868;SDS011;1442;47.448;8.582;2022-08-02T20:20:05;8.27;;;2.63;;
2868;SDS011;1442;47.448;8.582;2022-08-02T20:22:34;6.82;;;2.40;;
2868;SDS011;1442;47.448;8.582;2022-08-02T20:25:22;8.15;;;2.63;;
2868;SDS011;1442;47.448;8.582;2022-08-02T20:27:50;4.82;;;2.40;;
2868;SDS011;1442;47.448;8.582;2022-08-02T20:30:17;3.80;;;2.28;;
2868;SDS011;1442;47.448;8.582;2022-08-02T20:32:44;4.65;;;2.45;;
2868;SDS011;1442;47.448;8.582;2022-08-02T20:35:11;4.40;;;2.40;;
2868;SDS011;1442;47.448;8.582;2022-08-02T20:37:39;2.58;;;1.95;;
2868;SDS011;1442;47.448;8.582;2022-08-02T20:40:07;2.70;;;2.35;;
2868;SDS011;1442;47.448;8.582;2022-08-02T20:42:35;6.18;;;2.47;;
2868;SDS011;1442;47.448;8.582;2022-08-02T20:45:03;4.47;;;2.40;;
2868;SDS011;1442;47.448;8.582;2022-08-02T20:47:30;2.92;;;2.28;;
2868;SDS011;1442;47.448;8.582;2022-08-02T20:49:57;3.83;;;1.88;;
2868;SDS011;1442;47.448;8.582;2022-08-02T20:52:43;6.00;;;2.55;;
2868;SDS011;1442;47.448;8.582;2022-08-02T20:55:11;4.38;;;2.70;;
2868;SDS011;1442;47.448;8.582;2022-08-02T20:57:39;3.60;;;2.70;;
2868;SDS011;1442;47.448;8.582;2022-08-02T21:00:06;3.92;;;2.10;;
2868;SDS011;1442;47.448;8.582;2022-08-02T21:02:34;3.28;;;2.30;;
2868;SDS011;1442;47.448;8.582;2022-08-02T21:05:01;4.15;;;2.25;;
2868;SDS011;1442;47.448;8.582;2022-08-02T21:07:28;3.30;;;2.30;;
2868;SDS011;1442;47.448;8.582;2022-08-02T21:09:57;3.88;;;2.65;;
2868;SDS011;1442;47.448;8.582;2022-08-02T21:12:24;2.50;;;2.30;;
2868;SDS011;1442;47.448;8.582;2022-08-02T21:14:51;4.07;;;2.70;;
2868;SDS011;1442;47.448;8.582;2022-08-02T21:17:18;2.80;;;2.17;;
2868;SDS011;1442;47.448;8.582;2022-08-02T21:19:45;2.60;;;2.15;;
2868;SDS011;1442;47.448;8.582;2022-08-02T21:22:14;6.05;;;2.53;;
2868;SDS011;1442;47.448;8.582;2022-08-02T21:24:41;6.80;;;2.42;;
2868;SDS011;1442;47.448;8.582;2022-08-02T21:27:09;2.83;;;2.20;;
2868;SDS011;1442;47.448;8.582;2022-08-02T21:29:36;4.35;;;2.53;;
2868;SDS011;1442;47.448;8.582;2022-08-02T21:32:04;5.53;;;2.22;;
2868;SDS011;1442;47.448;8.582;2022-08-02T21:34:31;3.25;;;2.33;;
2868;SDS011;1442;47.448;8.582;2022-08-02T21:36:58;3.90;;;2.70;;
2868;SDS011;1442;47.448;8.582;2022-08-02T21:39:26;4.07;;;2.47;;
2868;SDS011;1442;47.448;8.582;2022-08-02T21:41:53;3.58;;;2.88;;
2868;SDS011;1442;47.448;8.582;2022-08-02T21:44:22;4.53;;;3.00;;
2868;SDS011;1442;47.448;8.582;2022-08-02T21:46:50;3.42;;;2.92;;